createdAt,value
2022-07-29T00:00:24.912Z,1.63
2022-07-29T00:02:51.789Z,1.37
2022-07-29T00:05:18.658Z,1.80
2022-07-29T00:07:45.558Z,1.70
2022-07-29T00:10:12.359Z,1.40
2022-07-29T00:12:39.246Z,2.43
2022-07-29T00:15:06.777Z,2.03
2022-07-29T00:17:35.052Z,1.87
2022-07-29T00:20:01.873Z,1.53
2022-07-29T00:22:28.726Z,1.80
2022-07-29T00:24:55.571Z,1.83
2022-07-29T00:27:23.002Z,1.80
2022-07-29T00:29:49.839Z,1.67
2022-07-29T00:32:16.611Z,1.30
2022-07-29T00:35:02.364Z,1.70
2022-07-29T00:37:29.690Z,1.57
2022-07-29T00:39:56.747Z,1.47
2022-07-29T00:42:23.742Z,1.83
2022-07-29T00:44:50.651Z,1.60
2022-07-29T00:47:17.488Z,1.97
2022-07-29T00:49:44.367Z,1.50
2022-07-29T00:52:11.145Z,1.77
2022-07-29T00:54:44.138Z,1.60
2022-07-29T00:57:11.718Z,1.90
2022-07-29T00:59:38.506Z,1.70
2022-07-29T01:02:05.336Z,1.70
2022-07-29T01:04:32.345Z,1.60
2022-07-29T01:06:59.666Z,2.10
2022-07-29T01:09:40.865Z,1.60
2022-07-29T01:12:14.120Z,2.07
2022-07-29T01:14:41.433Z,1.73
2022-07-29T01:17:08.202Z,1.70
2022-07-29T01:19:35.723Z,1.57
2022-07-29T01:22:02.508Z,1.87
2022-07-29T01:24:29.371Z,1.53
2022-07-29T01:26:57.734Z,1.60
2022-07-29T01:29:24.496Z,1.30
2022-07-29T01:31:59.503Z,1.43
2022-07-29T01:34:29.085Z,1.83
2022-07-29T01:36:55.912Z,1.90
2022-07-29T01:39:22.705Z,1.90
2022-07-29T01:41:49.528Z,1.53
2022-07-29T01:44:16.801Z,1.70
2022-07-29T01:46:43.910Z,1.40
2022-07-29T01:49:10.962Z,1.43
2022-07-29T01:51:37.783Z,1.50
2022-07-29T01:54:04.543Z,1.67
2022-07-29T01:56:33.847Z,1.80
2022-07-29T01:59:00.668Z,2.17
2022-07-29T02:01:27.642Z,1.47
2022-07-29T02:03:54.640Z,1.37
2022-07-29T02:06:21.444Z,1.80
2022-07-29T02:08:48.239Z,1.40
2022-07-29T02:11:15.104Z,1.87
2022-07-29T02:13:41.929Z,2.00
2022-07-29T02:16:08.796Z,1.90
2022-07-29T02:18:35.794Z,1.20
2022-07-29T02:21:02.623Z,1.60
2022-07-29T02:23:29.397Z,1.33
2022-07-29T02:25:56.270Z,1.83
2022-07-29T02:28:23.017Z,2.17
2022-07-29T02:30:49.879Z,1.63
2022-07-29T02:33:17.138Z,1.50
2022-07-29T02:35:43.912Z,2.20
2022-07-29T02:38:34.052Z,2.13
2022-07-29T02:41:00.895Z,2.13
2022-07-29T02:43:27.688Z,2.37
2022-07-29T02:45:54.508Z,1.23
2022-07-29T02:48:21.390Z,1.47
2022-07-29T02:50:48.177Z,1.73
2022-07-29T02:53:15.013Z,1.90
2022-07-29T02:55:41.901Z,2.07
2022-07-29T02:58:08.633Z,1.67
2022-07-29T03:00:35.498Z,2.07
2022-07-29T03:03:02.246Z,2.90
2022-07-29T03:05:29.000Z,2.53
2022-07-29T03:07:55.799Z,2.80
2022-07-29T03:10:22.548Z,3.07
2022-07-29T03:12:49.312Z,2.40
2022-07-29T03:15:16.200Z,2.57
2022-07-29T03:17:43.981Z,3.10
2022-07-29T03:20:10.719Z,2.73
2022-07-29T03:22:37.592Z,3.13
2022-07-29T03:25:04.430Z,3.00
2022-07-29T03:27:31.171Z,3.20
2022-07-29T03:29:58.026Z,3.10
2022-07-29T03:32:25.197Z,3.57
2022-07-29T03:34:52.124Z,3.73
2022-07-29T03:37:19.056Z,3.20
2022-07-29T03:39:45.799Z,2.87
2022-07-29T03:42:12.616Z,3.23
2022-07-29T03:44:39.473Z,3.80
2022-07-29T03:47:06.262Z,3.80
2022-07-29T03:49:33.121Z,3.10
2022-07-29T03:52:00.200Z,3.10
2022-07-29T03:54:26.995Z,3.23
2022-07-29T03:56:53.744Z,3.77
2022-07-29T03:59:20.973Z,3.93
2022-07-29T04:01:47.865Z,2.97
2022-07-29T04:04:14.900Z,2.90
2022-07-29T04:06:42.024Z,2.83
2022-07-29T04:09:09.825Z,3.50
2022-07-29T04:11:59.812Z,4.00
2022-07-29T04:14:23.817Z,2.60
2022-07-29T04:16:50.657Z,2.77
2022-07-29T04:19:17.455Z,3.10
2022-07-29T04:21:46.242Z,3.17
2022-07-29T04:24:13.432Z,3.23
2022-07-29T04:26:40.431Z,2.43
2022-07-29T04:29:07.430Z,2.80
2022-07-29T04:31:34.259Z,2.90
2022-07-29T04:34:01.076Z,2.93
2022-07-29T04:36:29.146Z,3.50
2022-07-29T04:38:56.655Z,2.50
2022-07-29T04:41:23.408Z,2.70
2022-07-29T04:44:02.122Z,3.03
2022-07-29T04:46:29.083Z,2.50
2022-07-29T04:48:56.185Z,3.00
2022-07-29T04:51:23.385Z,3.10
2022-07-29T04:53:50.144Z,2.93
2022-07-29T04:56:16.933Z,3.00
2022-07-29T04:58:43.780Z,2.50
2022-07-29T05:01:10.671Z,2.80
2022-07-29T05:03:37.496Z,2.40
2022-07-29T05:06:04.330Z,2.93
2022-07-29T05:08:31.088Z,3.70
2022-07-29T05:10:57.877Z,2.40
2022-07-29T05:13:45.898Z,2.70
2022-07-29T05:16:14.276Z,2.80
2022-07-29T05:18:41.430Z,2.47
2022-07-29T05:21:08.193Z,2.40
2022-07-29T05:23:35.199Z,3.70
2022-07-29T05:26:02.139Z,3.30
2022-07-29T05:28:28.899Z,2.50
2022-07-29T05:30:57.414Z,3.20
2022-07-29T05:33:35.176Z,3.40
2022-07-29T05:36:03.662Z,3.20
2022-07-29T05:38:30.506Z,3.33
2022-07-29T05:40:57.266Z,4.60
2022-07-29T05:43:24.146Z,4.43
2022-07-29T05:45:51.270Z,4.33
2022-07-29T05:48:18.180Z,4.47
2022-07-29T05:50:44.989Z,4.93
2022-07-29T05:53:19.067Z,4.30
2022-07-29T05:55:47.349Z,3.43
2022-07-29T05:58:14.295Z,4.27
2022-07-29T06:00:41.247Z,4.30
2022-07-29T06:03:08.049Z,4.70
2022-07-29T06:05:34.887Z,4.30
2022-07-29T06:08:01.757Z,4.20
2022-07-29T06:10:28.592Z,4.03
2022-07-29T06:12:55.631Z,4.40
2022-07-29T06:15:22.501Z,5.27
2022-07-29T06:17:59.139Z,4.70
2022-07-29T06:20:27.940Z,3.80
2022-07-29T06:22:54.750Z,4.50
2022-07-29T06:25:21.661Z,4.37
2022-07-29T06:27:48.741Z,3.43
2022-07-29T06:30:15.554Z,3.23
2022-07-29T06:32:43.434Z,3.90
2022-07-29T06:35:38.346Z,3.23
2022-07-29T06:37:59.575Z,3.63
2022-07-29T06:40:45.588Z,3.03
2022-07-29T06:43:12.515Z,2.87
2022-07-29T06:45:42.425Z,3.43
2022-07-29T06:48:09.484Z,3.47
2022-07-29T06:50:36.332Z,3.33
2022-07-29T06:53:03.102Z,3.20
2022-07-29T06:55:29.944Z,2.83
2022-07-29T06:57:56.733Z,3.47
2022-07-29T07:00:23.598Z,3.20
2022-07-29T07:02:50.908Z,3.50
2022-07-29T07:05:17.727Z,2.63
2022-07-29T07:07:44.675Z,2.90
2022-07-29T07:10:11.502Z,4.60
2022-07-29T07:12:38.365Z,4.60
2022-07-29T07:15:05.196Z,3.80
2022-07-29T07:17:32.022Z,3.40
2022-07-29T07:19:58.826Z,3.37
2022-07-29T07:22:25.583Z,3.17
2022-07-29T07:24:52.701Z,3.40
2022-07-29T07:27:19.453Z,4.13
2022-07-29T07:29:46.270Z,3.60
2022-07-29T07:32:14.645Z,3.47
2022-07-29T07:34:41.476Z,3.40
2022-07-29T07:37:08.392Z,2.93
2022-07-29T07:39:35.318Z,3.30
2022-07-29T07:42:02.635Z,2.83
2022-07-29T07:44:29.417Z,2.90
2022-07-29T07:46:56.322Z,3.43
2022-07-29T07:49:23.249Z,3.20
2022-07-29T07:51:50.424Z,3.50
2022-07-29T07:54:20.494Z,3.33
2022-07-29T07:56:50.759Z,3.33
2022-07-29T07:59:20.428Z,3.20
2022-07-29T08:01:55.045Z,3.20
2022-07-29T08:04:27.564Z,3.43
2022-07-29T08:06:58.245Z,3.53
2022-07-29T08:09:30.299Z,3.10
2022-07-29T08:11:57.588Z,2.70
2022-07-29T08:14:24.388Z,3.10
2022-07-29T08:16:52.210Z,3.07
2022-07-29T08:19:19.081Z,3.13
2022-07-29T08:21:45.897Z,2.07
2022-07-29T08:24:31.579Z,2.80
2022-07-29T08:26:58.379Z,3.30
2022-07-29T08:29:25.150Z,2.50
2022-07-29T08:31:52.303Z,2.63
2022-07-29T08:34:19.383Z,3.37
2022-07-29T08:36:53.806Z,2.47
2022-07-29T08:39:20.575Z,2.90
2022-07-29T08:41:57.294Z,2.87
2022-07-29T08:44:30.827Z,3.83
2022-07-29T08:46:59.121Z,3.20
2022-07-29T08:49:25.931Z,2.37
2022-07-29T08:51:52.794Z,2.30
2022-07-29T08:54:19.734Z,2.73
2022-07-29T08:56:46.676Z,2.93
2022-07-29T08:59:13.675Z,3.70
2022-07-29T09:01:45.147Z,3.17
2022-07-29T09:04:12.149Z,2.93
2022-07-29T09:06:38.961Z,2.83
2022-07-29T09:09:05.739Z,2.80
2022-07-29T09:11:32.605Z,2.93
2022-07-29T09:13:59.473Z,2.70
2022-07-29T09:16:50.775Z,2.37
2022-07-29T09:19:13.228Z,2.93
2022-07-29T09:21:58.814Z,1.80
2022-07-29T09:24:25.642Z,2.43
2022-07-29T09:26:52.568Z,3.00
2022-07-29T09:29:19.479Z,2.27
2022-07-29T09:31:46.358Z,2.47
2022-07-29T09:34:13.199Z,2.70
2022-07-29T09:36:39.958Z,2.23
2022-07-29T09:39:06.776Z,1.93
2022-07-29T09:41:33.559Z,2.43
2022-07-29T09:44:00.292Z,2.27
2022-07-29T09:46:27.262Z,2.40
2022-07-29T09:48:54.082Z,2.03
2022-07-29T09:51:25.432Z,2.70
2022-07-29T09:53:56.897Z,1.90
2022-07-29T09:56:23.637Z,2.10
2022-07-29T09:58:50.391Z,2.43
2022-07-29T10:01:17.310Z,2.65
2022-07-29T10:03:44.153Z,2.07
2022-07-29T10:06:11.032Z,2.30
2022-07-29T10:08:38.136Z,2.40
2022-07-29T10:11:04.875Z,2.20
2022-07-29T10:13:31.603Z,1.80
2022-07-29T10:15:58.624Z,2.07
2022-07-29T10:18:25.524Z,2.13
2022-07-29T10:20:52.294Z,2.23
2022-07-29T10:23:19.232Z,2.40
2022-07-29T10:25:46.759Z,2.27
2022-07-29T10:28:16.568Z,2.20
2022-07-29T10:30:44.630Z,2.37
2022-07-29T10:33:11.494Z,1.90
2022-07-29T10:35:38.239Z,3.07
2022-07-29T10:38:05.031Z,2.53
2022-07-29T10:40:50.736Z,2.10
2022-07-29T10:43:18.748Z,2.10
2022-07-29T10:45:46.901Z,2.20
2022-07-29T10:48:17.021Z,2.87
2022-07-29T10:50:46.084Z,2.20
2022-07-29T10:53:14.331Z,2.92
2022-07-29T10:55:43.666Z,2.30
2022-07-29T10:58:11.407Z,2.00
2022-07-29T11:00:38.204Z,2.25
2022-07-29T11:03:10.469Z,2.50
2022-07-29T11:05:40.674Z,2.08
2022-07-29T11:08:07.782Z,2.40
2022-07-29T11:10:34.537Z,2.30
2022-07-29T11:13:01.364Z,2.15
2022-07-29T11:15:28.912Z,3.05
2022-07-29T11:17:59.529Z,2.90
2022-07-29T11:20:27.167Z,2.60
2022-07-29T11:22:54.316Z,2.58
2022-07-29T11:25:50.989Z,2.58
2022-07-29T11:28:08.005Z,1.70
2022-07-29T11:30:34.932Z,1.93
2022-07-29T11:33:01.674Z,2.53
2022-07-29T11:35:37.396Z,2.37
2022-07-29T11:38:05.371Z,2.33
2022-07-29T11:40:32.391Z,2.00
2022-07-29T11:42:59.186Z,3.10
2022-07-29T11:45:44.095Z,3.47
2022-07-29T11:48:29.444Z,2.70
2022-07-29T11:50:58.798Z,2.70
2022-07-29T11:53:25.878Z,2.13
2022-07-29T11:55:56.346Z,1.97
2022-07-29T11:58:26.047Z,1.67
2022-07-29T12:00:53.209Z,1.90
2022-07-29T12:03:22.682Z,2.17
2022-07-29T12:06:00.617Z,2.27
2022-07-29T12:08:28.728Z,2.00
2022-07-29T12:10:55.573Z,2.75
2022-07-29T12:13:22.793Z,2.70
2022-07-29T12:16:04.164Z,3.13
2022-07-29T12:18:31.194Z,2.88
2022-07-29T12:20:58.223Z,2.05
2022-07-29T12:23:25.182Z,2.88
2022-07-29T12:25:56.688Z,2.60
2022-07-29T12:28:26.867Z,2.50
2022-07-29T12:30:54.633Z,1.85
2022-07-29T12:33:21.542Z,2.05
2022-07-29T12:36:03.538Z,2.88
2022-07-29T12:38:33.701Z,2.65
2022-07-29T12:41:00.439Z,1.75
2022-07-29T12:43:27.200Z,2.40
2022-07-29T12:45:54.629Z,2.65
2022-07-29T12:48:21.419Z,1.80
2022-07-29T12:50:48.282Z,2.15
2022-07-29T12:53:15.266Z,1.80
2022-07-29T12:55:44.646Z,2.20
2022-07-29T12:58:11.440Z,2.50
2022-07-29T13:00:38.467Z,2.53
2022-07-29T13:03:06.216Z,2.20
2022-07-29T13:05:34.981Z,1.73
2022-07-29T13:08:01.774Z,4.00
2022-07-29T13:10:30.436Z,2.38
2022-07-29T13:12:57.196Z,2.50
2022-07-29T13:15:24.073Z,2.05
2022-07-29T13:17:50.892Z,1.70
2022-07-29T13:20:19.131Z,2.00
2022-07-29T13:22:46.585Z,2.00
2022-07-29T13:25:13.323Z,2.35
2022-07-29T13:27:40.653Z,2.22
2022-07-29T13:30:07.524Z,2.35
2022-07-29T13:32:35.599Z,2.67
2022-07-29T13:35:05.279Z,2.10
2022-07-29T13:37:34.106Z,2.20
2022-07-29T13:40:01.236Z,1.87
2022-07-29T13:42:28.062Z,2.17
2022-07-29T13:44:55.003Z,2.10
2022-07-29T13:47:21.731Z,2.42
2022-07-29T13:49:48.463Z,2.63
2022-07-29T13:52:15.380Z,2.13
2022-07-29T13:54:42.846Z,2.25
2022-07-29T13:57:09.665Z,2.08
2022-07-29T13:59:36.598Z,2.30
2022-07-29T14:02:03.366Z,2.60
2022-07-29T14:04:30.296Z,2.20
2022-07-29T14:06:57.268Z,2.80
2022-07-29T14:09:24.084Z,2.33
2022-07-29T14:11:52.346Z,2.05
2022-07-29T14:14:19.242Z,2.50
2022-07-29T14:16:49.115Z,2.70
2022-07-29T14:19:19.234Z,2.28
2022-07-29T14:21:46.445Z,2.25
2022-07-29T14:24:17.652Z,2.47
2022-07-29T14:26:46.317Z,2.05
2022-07-29T14:29:13.427Z,2.63
2022-07-29T14:31:40.449Z,2.05
2022-07-29T14:34:07.407Z,2.45
2022-07-29T14:36:34.210Z,2.70
2022-07-29T14:39:01.049Z,2.10
2022-07-29T14:41:29.303Z,2.42
2022-07-29T14:43:56.154Z,2.50
2022-07-29T14:46:22.935Z,2.85
2022-07-29T14:48:49.840Z,2.50
2022-07-29T14:51:16.647Z,3.60
2022-07-29T14:53:43.441Z,2.35
2022-07-29T14:56:35.356Z,2.13
2022-07-29T14:58:57.200Z,2.43
2022-07-29T15:01:24.052Z,2.17
2022-07-29T15:03:51.569Z,2.27
2022-07-29T15:06:18.376Z,2.42
2022-07-29T15:08:45.275Z,2.38
2022-07-29T15:11:12.040Z,2.78
2022-07-29T15:13:38.808Z,2.22
2022-07-29T15:16:05.714Z,2.50
2022-07-29T15:18:32.489Z,2.65
2022-07-29T15:21:01.322Z,2.78
2022-07-29T15:23:28.273Z,2.60
2022-07-29T15:25:55.138Z,2.33
2022-07-29T15:28:21.987Z,2.88
2022-07-29T15:30:48.805Z,2.40
2022-07-29T15:33:15.557Z,2.50
2022-07-29T15:35:42.322Z,2.33
2022-07-29T15:38:09.181Z,2.40
2022-07-29T15:40:36.389Z,2.20
2022-07-29T15:43:06.776Z,3.10
2022-07-29T15:45:36.133Z,3.83
2022-07-29T15:48:06.698Z,4.47
2022-07-29T15:50:33.521Z,2.80
2022-07-29T15:53:00.481Z,3.38
2022-07-29T15:55:27.322Z,2.53
2022-07-29T15:57:58.465Z,3.92
2022-07-29T16:00:27.212Z,4.03
2022-07-29T16:02:54.021Z,3.00
2022-07-29T16:05:20.873Z,3.60
2022-07-29T16:07:47.678Z,2.78
2022-07-29T16:10:14.492Z,3.00
2022-07-29T16:12:41.324Z,3.67
2022-07-29T16:15:10.518Z,3.92
2022-07-29T16:17:37.864Z,2.43
2022-07-29T16:20:04.643Z,3.00
2022-07-29T16:22:31.459Z,2.83
2022-07-29T16:24:58.248Z,3.40
2022-07-29T16:27:35.574Z,2.83
2022-07-29T16:30:05.164Z,2.60
2022-07-29T16:32:32.194Z,2.40
2022-07-29T16:34:58.963Z,3.00
2022-07-29T16:37:26.011Z,3.37
2022-07-29T16:39:55.703Z,2.83
2022-07-29T16:42:44.298Z,2.63
2022-07-29T16:45:09.572Z,3.80
2022-07-29T16:47:36.313Z,3.30
2022-07-29T16:50:03.094Z,3.05
2022-07-29T16:52:30.003Z,3.13
2022-07-29T16:54:56.773Z,3.40
2022-07-29T16:57:24.482Z,2.57
2022-07-29T16:59:51.556Z,2.60
2022-07-29T17:02:18.483Z,3.00
2022-07-29T17:04:45.322Z,2.50
2022-07-29T17:07:12.248Z,3.80
2022-07-29T17:09:39.142Z,2.80
2022-07-29T17:12:06.057Z,2.60
2022-07-29T17:14:32.971Z,3.03
2022-07-29T17:17:03.335Z,2.10
2022-07-29T17:19:30.353Z,3.10
2022-07-29T17:22:06.751Z,2.80
2022-07-29T17:24:35.906Z,2.92
2022-07-29T17:27:02.892Z,2.50
2022-07-29T17:29:29.784Z,2.50
2022-07-29T17:31:57.806Z,2.60
2022-07-29T17:34:24.761Z,3.03
2022-07-29T17:36:51.524Z,3.57
2022-07-29T17:39:18.333Z,3.50
2022-07-29T17:41:46.967Z,2.70
2022-07-29T17:44:13.769Z,2.70
2022-07-29T17:46:40.749Z,3.33
2022-07-29T17:49:07.680Z,4.20
2022-07-29T17:51:34.524Z,3.07
2022-07-29T17:54:01.498Z,3.70
2022-07-29T17:56:28.642Z,3.37
2022-07-29T17:58:55.529Z,3.30
2022-07-29T18:01:23.791Z,3.53
2022-07-29T18:03:50.836Z,3.23
2022-07-29T18:06:17.644Z,2.20
2022-07-29T18:08:47.548Z,2.70
2022-07-29T18:11:15.069Z,2.83
2022-07-29T18:13:41.971Z,3.30
2022-07-29T18:16:09.453Z,3.30
2022-07-29T18:18:36.424Z,2.90
2022-07-29T18:21:03.223Z,3.37
2022-07-29T18:23:30.278Z,2.80
2022-07-29T18:25:57.100Z,2.93
2022-07-29T18:28:23.945Z,2.43
2022-07-29T18:30:51.055Z,3.07
2022-07-29T18:33:22.322Z,2.50
2022-07-29T18:35:49.532Z,3.03
2022-07-29T18:38:16.332Z,3.07
2022-07-29T18:40:43.319Z,3.77
2022-07-29T18:43:10.114Z,2.80
2022-07-29T18:45:36.866Z,2.57
2022-07-29T18:48:12.960Z,2.53
2022-07-29T18:50:40.520Z,2.83
2022-07-29T18:53:07.369Z,2.33
2022-07-29T18:55:34.175Z,2.30
2022-07-29T18:58:00.957Z,2.80
2022-07-29T19:00:27.784Z,2.13
2022-07-29T19:02:54.805Z,3.00
2022-07-29T19:05:21.826Z,2.70
2022-07-29T19:07:48.623Z,2.80
2022-07-29T19:10:15.549Z,3.80
2022-07-29T19:12:42.560Z,2.83
2022-07-29T19:15:10.419Z,2.90
2022-07-29T19:17:37.467Z,3.40
2022-07-29T19:20:04.212Z,3.00
2022-07-29T19:22:31.267Z,2.93
2022-07-29T19:24:58.072Z,2.80
2022-07-29T19:27:25.980Z,2.60
2022-07-29T19:29:54.402Z,2.43
2022-07-29T19:32:26.118Z,2.60
2022-07-29T19:35:11.795Z,3.20
2022-07-29T19:37:38.788Z,2.90
2022-07-29T19:40:05.694Z,3.50
2022-07-29T19:42:32.548Z,3.20
2022-07-29T19:44:59.434Z,2.67
2022-07-29T19:47:26.224Z,4.37
2022-07-29T19:49:53.077Z,2.93
2022-07-29T19:52:19.943Z,2.67
2022-07-29T19:54:46.806Z,2.67
2022-07-29T19:57:13.641Z,2.70
2022-07-29T19:59:41.316Z,2.97
2022-07-29T20:02:11.027Z,2.80
2022-07-29T20:04:38.060Z,3.00
2022-07-29T20:07:04.934Z,3.10
2022-07-29T20:09:31.862Z,3.40
2022-07-29T20:11:58.724Z,2.70
2022-07-29T20:14:25.569Z,3.37
2022-07-29T20:16:54.420Z,2.63
2022-07-29T20:19:21.376Z,2.90
2022-07-29T20:21:48.234Z,3.27
2022-07-29T20:24:15.134Z,3.13
2022-07-29T20:26:41.973Z,3.17
2022-07-29T20:29:10.053Z,3.00
2022-07-29T20:31:36.886Z,3.43
2022-07-29T20:34:03.701Z,3.20
2022-07-29T20:36:30.625Z,3.70
2022-07-29T20:38:57.620Z,3.07
2022-07-29T20:41:24.497Z,2.80
2022-07-29T20:43:51.569Z,3.60
2022-07-29T20:46:18.418Z,2.30
2022-07-29T20:48:45.340Z,2.67
2022-07-29T20:51:12.215Z,3.43
2022-07-29T20:53:39.953Z,3.70
2022-07-29T20:56:06.736Z,3.60
2022-07-29T20:58:34.276Z,2.80
2022-07-29T21:01:01.129Z,3.13
2022-07-29T21:03:28.027Z,3.67
2022-07-29T21:05:55.097Z,3.10
2022-07-29T21:08:22.306Z,3.67
2022-07-29T21:10:49.109Z,2.43
2022-07-29T21:13:16.792Z,2.90
2022-07-29T21:15:46.403Z,3.10
2022-07-29T21:18:27.410Z,3.33
2022-07-29T21:20:54.301Z,3.50
2022-07-29T21:23:21.146Z,3.73
2022-07-29T21:25:48.062Z,3.17
2022-07-29T21:28:27.168Z,3.40
2022-07-29T21:30:54.119Z,4.60
2022-07-29T21:33:20.988Z,3.23
2022-07-29T21:38:34.695Z,3.40
2022-07-29T21:41:01.488Z,3.90
2022-07-29T21:43:28.928Z,4.33
2022-07-29T21:45:55.835Z,3.10
2022-07-29T21:48:22.714Z,3.23
2022-07-29T21:50:49.543Z,4.10
2022-07-29T21:53:16.350Z,3.70
2022-07-29T21:55:43.623Z,3.93
2022-07-29T21:58:11.935Z,4.00
2022-07-29T22:00:38.777Z,3.77
2022-07-29T22:03:05.656Z,3.97
2022-07-29T22:05:32.432Z,3.90
2022-07-29T22:07:59.237Z,3.60
2022-07-29T22:10:26.082Z,4.23
2022-07-29T22:12:52.885Z,3.40
2022-07-29T22:15:19.970Z,4.00
2022-07-29T22:17:47.348Z,2.87
2022-07-29T22:20:14.202Z,4.20
2022-07-29T22:22:41.116Z,3.93
2022-07-29T22:25:08.110Z,3.83
2022-07-29T22:27:35.116Z,4.47
2022-07-29T22:30:02.060Z,4.50
2022-07-29T22:32:28.901Z,4.50
2022-07-29T22:34:55.661Z,4.53
2022-07-29T22:37:22.515Z,4.17
2022-07-29T22:39:49.340Z,3.90
2022-07-29T22:42:16.168Z,4.23
2022-07-29T22:44:43.028Z,3.90
2022-07-29T22:47:09.848Z,3.73
2022-07-29T22:49:36.831Z,4.57
2022-07-29T22:52:03.770Z,3.90
2022-07-29T22:54:30.555Z,3.60
2022-07-29T22:56:57.533Z,4.13
2022-07-29T22:59:24.532Z,4.73
2022-07-29T23:01:51.357Z,4.87
2022-07-29T23:04:23.649Z,3.90
2022-07-29T23:06:50.677Z,3.60
2022-07-29T23:09:17.513Z,4.10
2022-07-29T23:11:44.305Z,3.70
2022-07-29T23:14:11.269Z,4.30
2022-07-29T23:16:38.209Z,3.37
2022-07-29T23:19:05.073Z,3.63
2022-07-29T23:21:32.145Z,3.77
2022-07-29T23:23:59.112Z,4.03
2022-07-29T23:26:25.956Z,4.20
2022-07-29T23:28:52.876Z,4.30
2022-07-29T23:31:19.660Z,3.90
2022-07-29T23:33:46.420Z,4.47
2022-07-29T23:36:13.220Z,5.00
2022-07-29T23:38:41.020Z,4.43
2022-07-29T23:41:09.766Z,4.27
2022-07-29T23:43:36.939Z,4.87
2022-07-29T23:46:03.832Z,4.50
2022-07-29T23:48:35.028Z,4.60
2022-07-29T23:51:01.876Z,4.10
2022-07-29T23:53:28.725Z,4.27
2022-07-29T23:55:55.529Z,3.70
2022-07-29T23:58:22.368Z,4.00
